createdAt,value
2024-01-15T00:00:33.287Z,1.70
2024-01-15T00:03:00.459Z,1.60
2024-01-15T00:05:27.564Z,1.70
2024-01-15T00:07:54.641Z,1.70
2024-01-15T00:10:21.687Z,1.80
2024-01-15T00:12:48.818Z,1.70
2024-01-15T00:15:16.511Z,1.60
2024-01-15T00:17:43.794Z,1.70
2024-01-15T00:20:11.350Z,1.80
2024-01-15T00:22:38.522Z,1.80
2024-01-15T00:25:05.740Z,1.80
2024-01-15T00:27:32.893Z,1.70
2024-01-15T00:29:59.921Z,1.60
2024-01-15T00:32:27.089Z,1.60
2024-01-15T00:34:54.257Z,1.70
2024-01-15T00:37:21.278Z,1.60
2024-01-15T00:39:48.345Z,1.50
2024-01-15T00:42:15.399Z,1.50
2024-01-15T00:44:43.584Z,1.40
2024-01-15T00:47:10.761Z,1.40
2024-01-15T00:49:37.936Z,1.40
2024-01-15T00:52:05.433Z,1.30
2024-01-15T00:54:32.636Z,1.30
2024-01-15T00:56:59.712Z,1.30
2024-01-15T00:59:26.498Z,1.20
2024-01-15T01:01:53.830Z,1.30
2024-01-15T01:04:21.205Z,1.40
2024-01-15T01:06:48.306Z,1.30
2024-01-15T01:09:15.345Z,1.40
2024-01-15T01:11:42.422Z,1.50
2024-01-15T01:14:09.405Z,1.60
2024-01-15T01:16:40.289Z,1.80
2024-01-15T01:19:08.716Z,1.70
2024-01-15T01:21:36.405Z,1.70
2024-01-15T01:24:03.469Z,1.90
2024-01-15T01:26:30.558Z,1.90
2024-01-15T01:28:57.483Z,1.80
2024-01-15T01:31:25.280Z,1.80
2024-01-15T01:33:53.659Z,2.00
2024-01-15T01:36:20.653Z,1.80
2024-01-15T01:38:47.770Z,1.90
2024-01-15T01:41:14.771Z,2.00
2024-01-15T01:43:41.674Z,2.10
2024-01-15T01:46:09.753Z,2.00
2024-01-15T01:48:37.848Z,2.00
2024-01-15T01:51:05.861Z,2.00
2024-01-15T01:53:36.115Z,2.10
2024-01-15T01:56:04.278Z,2.10
2024-01-15T01:58:33.651Z,2.10
2024-01-15T02:01:01.236Z,2.10
2024-01-15T02:03:29.640Z,2.10
2024-01-15T02:05:57.696Z,2.00
2024-01-15T02:08:25.010Z,1.90
2024-01-15T02:10:52.009Z,1.90
2024-01-15T02:13:19.921Z,2.00
2024-01-15T02:15:47.003Z,2.00
2024-01-15T02:18:14.504Z,1.90
2024-01-15T02:20:41.887Z,1.90
2024-01-15T02:23:16.372Z,1.80
2024-01-15T02:25:47.649Z,1.80
2024-01-15T02:28:17.516Z,1.80
2024-01-15T02:30:44.778Z,1.80
2024-01-15T02:33:12.806Z,1.80
2024-01-15T02:35:40.180Z,1.70
2024-01-15T02:38:08.168Z,1.70
2024-01-15T02:40:36.223Z,1.70
2024-01-15T02:43:03.429Z,1.70
2024-01-15T02:45:30.421Z,1.70
2024-01-15T02:47:57.652Z,1.70
2024-01-15T02:50:24.844Z,1.70
2024-01-15T02:52:51.886Z,1.80
2024-01-15T02:55:19.006Z,1.70
2024-01-15T02:57:46.248Z,1.70
2024-01-15T03:00:13.777Z,1.60
2024-01-15T03:02:46.224Z,1.60
2024-01-15T03:05:15.445Z,1.60
2024-01-15T03:07:42.939Z,1.70
2024-01-15T03:10:10.548Z,1.60
2024-01-15T03:12:37.862Z,1.70
2024-01-15T03:15:05.701Z,1.80
2024-01-15T03:17:32.925Z,1.70
2024-01-15T03:20:00.391Z,1.70
2024-01-15T03:22:27.532Z,1.60
2024-01-15T03:24:54.791Z,1.60
2024-01-15T03:27:22.160Z,1.60
2024-01-15T03:29:49.074Z,1.70
2024-01-15T03:32:17.392Z,1.80
2024-01-15T03:34:45.855Z,2.00
2024-01-15T03:37:14.015Z,2.10
2024-01-15T03:39:40.972Z,2.00
2024-01-15T03:42:08.389Z,2.00
2024-01-15T03:44:35.433Z,1.90
2024-01-15T03:47:02.540Z,2.00
2024-01-15T03:49:29.686Z,2.20
2024-01-15T03:51:57.216Z,2.20
2024-01-15T03:54:24.551Z,2.10
2024-01-15T03:56:51.477Z,2.10
2024-01-15T03:59:18.367Z,1.90
2024-01-15T04:01:54.494Z,1.80
2024-01-15T04:04:21.918Z,1.80
2024-01-15T04:06:49.267Z,1.80
2024-01-15T04:09:16.759Z,1.80
2024-01-15T04:11:43.608Z,1.70
2024-01-15T04:14:10.642Z,1.80
2024-01-15T04:16:39.016Z,1.80
2024-01-15T04:19:07.525Z,1.90
2024-01-15T04:21:34.750Z,1.90
2024-01-15T04:24:01.696Z,2.00
2024-01-15T04:26:28.798Z,2.10
2024-01-15T04:28:55.900Z,2.10
2024-01-15T04:31:30.556Z,2.20
2024-01-15T04:33:57.876Z,2.30
2024-01-15T04:36:25.113Z,2.50
2024-01-15T04:38:52.196Z,2.60
2024-01-15T04:41:19.393Z,2.60
2024-01-15T04:43:46.623Z,2.60
2024-01-15T04:46:13.844Z,2.70
2024-01-15T04:48:41.046Z,2.90
2024-01-15T04:51:10.606Z,3.00
2024-01-15T04:53:37.885Z,3.30
2024-01-15T04:56:05.121Z,3.40
2024-01-15T04:58:32.386Z,3.10
2024-01-15T05:00:59.371Z,3.10
2024-01-15T05:03:26.548Z,2.90
2024-01-15T05:05:53.963Z,2.70
2024-01-15T05:08:20.942Z,2.80
2024-01-15T05:10:48.535Z,2.90
2024-01-15T05:13:15.996Z,3.00
2024-01-15T05:15:42.997Z,2.70
2024-01-15T05:18:10.067Z,2.60
2024-01-15T05:20:37.386Z,2.50
2024-01-15T05:23:05.644Z,2.30
2024-01-15T05:25:32.613Z,2.30
2024-01-15T05:27:59.710Z,2.40
2024-01-15T05:30:27.067Z,2.20
2024-01-15T05:32:54.356Z,2.20
2024-01-15T05:35:21.634Z,2.20
2024-01-15T05:37:49.515Z,2.30
2024-01-15T05:40:16.618Z,2.30
2024-01-15T05:42:43.836Z,2.10
2024-01-15T05:45:11.436Z,2.20
2024-01-15T05:47:38.713Z,2.20
2024-01-15T05:50:06.433Z,2.20
2024-01-15T05:52:33.568Z,2.30
2024-01-15T05:55:00.694Z,2.40
2024-01-15T05:57:27.673Z,2.60
2024-01-15T05:59:54.577Z,2.80
2024-01-15T06:02:21.668Z,2.90
2024-01-15T06:04:48.776Z,3.00
2024-01-15T06:07:15.753Z,3.00
2024-01-15T06:09:42.989Z,2.40
2024-01-15T06:12:10.285Z,2.30
2024-01-15T06:14:37.514Z,2.30
2024-01-15T06:17:04.504Z,2.20
2024-01-15T06:19:31.701Z,2.10
2024-01-15T06:21:58.966Z,2.20
2024-01-15T06:24:25.958Z,2.20
2024-01-15T06:26:53.093Z,2.30
2024-01-15T06:29:20.064Z,2.30
2024-01-15T06:31:47.167Z,2.50
2024-01-15T06:34:16.603Z,2.40
2024-01-15T06:36:43.989Z,2.30
2024-01-15T06:39:11.859Z,2.20
2024-01-15T06:41:44.588Z,2.10
2024-01-15T06:44:12.550Z,2.10
2024-01-15T06:46:48.877Z,2.10
2024-01-15T06:49:16.566Z,1.90
2024-01-15T06:51:45.815Z,1.90
2024-01-15T06:54:14.821Z,1.80
2024-01-15T06:56:41.861Z,1.80
2024-01-15T06:59:08.676Z,1.80
2024-01-15T07:01:35.914Z,1.70
2024-01-15T07:04:03.138Z,1.60
2024-01-15T07:06:31.932Z,1.60
2024-01-15T07:08:59.102Z,1.60
2024-01-15T07:11:26.309Z,1.70
2024-01-15T07:13:53.600Z,1.70
2024-01-15T07:16:34.179Z,1.70
2024-01-15T07:19:04.587Z,1.70
2024-01-15T07:21:32.087Z,1.60
2024-01-15T07:23:59.487Z,1.50
2024-01-15T07:26:34.097Z,1.50
2024-01-15T07:29:05.994Z,1.60
2024-01-15T07:31:40.849Z,1.60
2024-01-15T07:34:10.076Z,1.60
2024-01-15T07:36:43.574Z,1.50
2024-01-15T07:39:14.026Z,1.40
2024-01-15T07:41:42.951Z,1.50
2024-01-15T07:44:10.242Z,1.40
2024-01-15T07:46:37.628Z,1.40
2024-01-15T07:49:06.745Z,1.40
2024-01-15T07:51:33.748Z,1.40
2024-01-15T07:54:01.367Z,1.40
2024-01-15T07:56:29.559Z,1.50
2024-01-15T07:58:57.736Z,1.60
2024-01-15T08:01:24.957Z,1.60
2024-01-15T08:03:53.484Z,1.50
2024-01-15T08:06:20.760Z,1.50
2024-01-15T08:08:47.967Z,1.50
2024-01-15T08:11:15.264Z,1.60
2024-01-15T08:13:42.676Z,1.70
2024-01-15T08:16:09.780Z,1.70
2024-01-15T08:18:37.413Z,1.80
2024-01-15T08:21:04.692Z,1.70
2024-01-15T08:23:32.609Z,1.80
2024-01-15T08:25:59.911Z,1.80
2024-01-15T08:28:26.853Z,1.70
2024-01-15T08:30:53.942Z,1.70
2024-01-15T08:33:22.360Z,1.70
2024-01-15T08:35:50.091Z,1.70
2024-01-15T08:38:17.260Z,1.70
2024-01-15T08:40:44.299Z,1.80
2024-01-15T08:43:11.247Z,1.70
2024-01-15T08:45:40.385Z,1.80
2024-01-15T08:48:08.248Z,1.80
2024-01-15T08:50:35.237Z,1.90
2024-01-15T08:53:02.291Z,2.00
2024-01-15T08:55:29.394Z,2.00
2024-01-15T08:57:57.735Z,2.00
2024-01-15T09:00:25.093Z,2.00
2024-01-15T09:02:54.158Z,2.00
2024-01-15T09:05:21.237Z,2.10
2024-01-15T09:07:48.739Z,2.20
2024-01-15T09:10:16.151Z,2.30
2024-01-15T09:12:45.246Z,2.50
2024-01-15T09:15:12.502Z,2.70
2024-01-15T09:17:39.841Z,2.80
2024-01-15T09:20:07.971Z,2.90
2024-01-15T09:22:35.099Z,2.90
2024-01-15T09:25:04.824Z,2.90
2024-01-15T09:27:33.855Z,2.70
2024-01-15T09:30:00.784Z,2.40
2024-01-15T09:32:27.861Z,2.30
2024-01-15T09:34:54.789Z,2.30
2024-01-15T09:37:32.397Z,2.40
2024-01-15T09:40:13.336Z,2.50
2024-01-15T09:42:40.934Z,2.60
2024-01-15T09:45:10.423Z,2.70
2024-01-15T09:47:41.607Z,2.70
2024-01-15T09:50:11.025Z,2.80
2024-01-15T09:52:38.258Z,3.00
2024-01-15T09:55:06.785Z,3.10
2024-01-15T09:57:34.598Z,3.20
2024-01-15T10:00:05.614Z,3.30
2024-01-15T10:02:33.301Z,3.10
2024-01-15T10:05:00.462Z,3.20
2024-01-15T10:07:31.651Z,3.30
2024-01-15T10:09:59.008Z,3.40
2024-01-15T10:12:28.499Z,3.50
2024-01-15T10:14:57.579Z,3.60
2024-01-15T10:17:28.492Z,3.70
2024-01-15T10:19:55.756Z,3.80
2024-01-15T10:22:22.897Z,3.90
2024-01-15T10:24:50.136Z,3.90
2024-01-15T10:27:17.599Z,3.90
2024-01-15T10:29:44.711Z,4.00
2024-01-15T10:32:13.118Z,4.00
2024-01-15T10:34:42.998Z,4.30
2024-01-15T10:37:11.084Z,4.60
2024-01-15T10:39:39.272Z,4.80
2024-01-15T10:42:08.202Z,4.70
2024-01-15T10:44:37.088Z,4.60
2024-01-15T10:47:05.177Z,4.70
2024-01-15T10:49:33.660Z,4.80
2024-01-15T10:52:04.923Z,5.00
2024-01-15T10:54:33.572Z,5.30
2024-01-15T10:57:01.517Z,5.30
2024-01-15T10:59:28.500Z,5.40
2024-01-15T11:01:56.728Z,5.50
2024-01-15T11:04:28.244Z,5.80
2024-01-15T11:06:56.895Z,7.40
2024-01-15T11:09:27.293Z,9.20
2024-01-15T11:12:10.473Z,9.70
2024-01-15T11:14:47.959Z,10.30
2024-01-15T11:17:16.677Z,9.80
2024-01-15T11:19:45.176Z,9.50
2024-01-15T11:22:35.499Z,9.40
2024-01-15T11:25:16.290Z,9.80
2024-01-15T11:27:53.914Z,9.50
2024-01-15T11:30:25.664Z,9.90
2024-01-15T11:32:53.003Z,10.90
2024-01-15T11:35:20.589Z,11.50
2024-01-15T11:37:55.831Z,11.30
2024-01-15T11:40:23.954Z,10.90
2024-01-15T11:42:53.693Z,10.70
2024-01-15T11:45:21.569Z,9.60
2024-01-15T11:48:03.749Z,9.90
2024-01-15T11:50:32.447Z,10.00
2024-01-15T11:53:07.128Z,9.60
2024-01-15T11:55:42.381Z,9.30
2024-01-15T11:58:13.304Z,9.90
2024-01-15T12:00:50.809Z,10.20
2024-01-15T12:03:21.922Z,8.90
2024-01-15T12:05:49.147Z,8.20
2024-01-15T12:08:16.102Z,9.00
2024-01-15T12:10:43.408Z,8.30
2024-01-15T12:13:15.561Z,6.90
2024-01-15T12:15:44.461Z,6.00
2024-01-15T12:18:20.913Z,5.50
2024-01-15T12:20:48.927Z,5.40
2024-01-15T12:23:18.541Z,5.30
2024-01-15T12:25:46.611Z,5.40
2024-01-15T12:28:13.939Z,5.30
2024-01-15T12:30:41.170Z,5.10
2024-01-15T12:33:10.468Z,5.20
2024-01-15T12:35:38.229Z,5.40
2024-01-15T12:38:05.876Z,5.50
2024-01-15T12:40:36.078Z,5.60
2024-01-15T12:43:04.263Z,5.50
2024-01-15T12:45:32.413Z,5.50
2024-01-15T12:48:01.421Z,5.60
2024-01-15T12:50:29.231Z,5.80
2024-01-15T12:52:56.456Z,5.90
2024-01-15T12:55:23.674Z,6.00
2024-01-15T12:57:53.736Z,6.20
2024-01-15T13:00:21.434Z,6.00
2024-01-15T13:02:48.647Z,6.20
2024-01-15T13:05:17.763Z,6.10
2024-01-15T13:07:45.229Z,6.00
2024-01-15T13:10:13.120Z,5.90
2024-01-15T13:12:42.063Z,5.80
2024-01-15T13:15:14.818Z,5.50
2024-01-15T13:17:44.466Z,5.90
2024-01-15T13:20:13.003Z,5.90
2024-01-15T13:22:41.768Z,6.10
2024-01-15T13:25:10.060Z,6.90
2024-01-15T13:27:38.153Z,7.90
2024-01-15T13:30:08.532Z,8.50
2024-01-15T13:32:37.181Z,9.00
2024-01-15T13:35:07.064Z,9.50
2024-01-15T13:37:34.329Z,10.00
2024-01-15T13:40:02.211Z,10.20
2024-01-15T13:42:29.671Z,10.50
2024-01-15T13:44:56.975Z,10.60
2024-01-15T13:47:24.168Z,10.90
2024-01-15T13:49:51.605Z,11.30
2024-01-15T13:52:19.788Z,11.20
2024-01-15T13:54:50.376Z,11.00
2024-01-15T13:57:20.598Z,10.90
2024-01-15T13:59:47.885Z,10.70
2024-01-15T14:02:19.777Z,10.70
2024-01-15T14:04:50.044Z,10.50
2024-01-15T14:07:18.048Z,10.20
2024-01-15T14:09:45.506Z,9.60
2024-01-15T14:12:13.286Z,8.90
2024-01-15T14:14:41.539Z,8.10
2024-01-15T14:17:08.763Z,7.50
2024-01-15T14:19:35.946Z,7.10
2024-01-15T14:22:03.149Z,6.70
2024-01-15T14:24:30.288Z,6.30
2024-01-15T14:26:58.654Z,6.10
2024-01-15T14:29:27.281Z,6.00
2024-01-15T14:31:54.808Z,5.90
2024-01-15T14:34:24.990Z,5.80
2024-01-15T14:36:55.453Z,5.70
2024-01-15T14:39:27.163Z,5.70
2024-01-15T14:41:56.457Z,5.70
2024-01-15T14:44:25.112Z,5.80
2024-01-15T14:46:52.199Z,6.00
2024-01-15T14:49:20.026Z,6.30
2024-01-15T14:51:49.036Z,6.40
2024-01-15T14:54:16.284Z,6.30
2024-01-15T14:56:46.190Z,6.10
2024-01-15T14:59:15.238Z,6.00
2024-01-15T15:01:43.241Z,6.00
2024-01-15T15:04:11.780Z,5.90
2024-01-15T15:06:39.193Z,5.80
2024-01-15T15:09:11.128Z,5.60
2024-01-15T15:11:39.386Z,5.60
2024-01-15T15:14:06.523Z,5.50
2024-01-15T15:16:33.555Z,5.30
2024-01-15T15:19:00.548Z,5.10
2024-01-15T15:21:29.860Z,4.90
2024-01-15T15:23:57.277Z,4.80
2024-01-15T15:26:25.455Z,4.70
2024-01-15T15:28:52.447Z,4.60
2024-01-15T15:31:19.704Z,4.40
2024-01-15T15:33:47.320Z,4.40
2024-01-15T15:36:14.397Z,4.30
2024-01-15T15:38:41.428Z,4.20
2024-01-15T15:41:09.369Z,4.10
2024-01-15T15:43:36.832Z,4.00
2024-01-15T15:46:05.106Z,3.90
2024-01-15T15:48:33.107Z,3.80
2024-01-15T15:51:01.399Z,3.80
2024-01-15T15:53:28.685Z,3.80
2024-01-15T15:55:55.661Z,3.60
2024-01-15T15:58:22.862Z,3.60
2024-01-15T16:00:50.033Z,3.70
2024-01-15T16:03:17.586Z,3.80
2024-01-15T16:05:51.899Z,3.80
2024-01-15T16:08:21.126Z,3.90
2024-01-15T16:10:52.867Z,4.00
2024-01-15T16:13:20.580Z,4.10
2024-01-15T16:15:47.926Z,4.20
2024-01-15T16:23:19.789Z,4.10
2024-01-15T16:23:34.385Z,4.00
2024-01-15T16:24:11.374Z,3.90
2024-01-15T16:26:38.808Z,3.80
2024-01-15T16:29:06.769Z,3.60
2024-01-15T16:31:34.674Z,3.60
2024-01-15T16:34:05.230Z,3.50
2024-01-15T16:36:34.351Z,3.30
2024-01-15T16:39:02.279Z,3.30
2024-01-15T16:41:29.820Z,3.30
2024-01-15T16:43:56.830Z,3.30
2024-01-15T16:46:24.078Z,3.20
2024-01-15T16:48:51.126Z,3.10
2024-01-15T16:51:18.427Z,3.00
2024-01-15T16:53:45.488Z,3.00
2024-01-15T16:56:12.514Z,3.00
2024-01-15T16:58:39.723Z,3.00
2024-01-15T17:01:08.964Z,2.90
2024-01-15T17:03:36.214Z,2.90
2024-01-15T17:06:03.774Z,2.70
2024-01-15T17:08:31.789Z,2.60
2024-01-15T17:11:02.041Z,2.60
2024-01-15T17:13:29.947Z,2.50
2024-01-15T17:15:57.243Z,2.50
2024-01-15T17:18:24.257Z,2.50
2024-01-15T17:20:51.249Z,2.40
2024-01-15T17:23:19.568Z,2.40
2024-01-15T17:25:47.000Z,2.30
2024-01-15T17:28:14.165Z,2.30
2024-01-15T17:30:41.027Z,2.40
2024-01-15T17:33:08.243Z,2.30
2024-01-15T17:35:35.493Z,2.30
2024-01-15T17:38:02.709Z,2.30
2024-01-15T17:40:30.152Z,2.30
2024-01-15T17:42:57.203Z,2.30
2024-01-15T17:45:25.432Z,2.20
2024-01-15T17:47:52.685Z,2.30
2024-01-15T17:50:20.300Z,2.20
2024-01-15T17:52:47.408Z,2.00
2024-01-15T17:55:14.428Z,1.90
2024-01-15T17:57:41.388Z,1.90
2024-01-15T18:00:08.934Z,1.90
2024-01-15T18:02:36.231Z,1.90
2024-01-15T18:05:03.672Z,2.00
2024-01-15T18:07:30.907Z,2.10
2024-01-15T18:09:57.854Z,2.30
2024-01-15T18:12:28.929Z,2.40
2024-01-15T18:14:56.160Z,2.40
2024-01-15T18:17:24.532Z,2.60
2024-01-15T18:19:51.822Z,2.40
2024-01-15T18:22:19.551Z,2.30
2024-01-15T18:24:47.412Z,2.20
2024-01-15T18:27:14.712Z,2.20
2024-01-15T18:29:41.869Z,2.10
2024-01-15T18:32:09.298Z,2.00
2024-01-15T18:34:37.738Z,2.00
2024-01-15T18:37:05.599Z,2.00
2024-01-15T18:39:32.724Z,2.00
2024-01-15T18:41:59.963Z,1.90
2024-01-15T18:44:26.850Z,2.00
2024-01-15T18:46:54.016Z,1.80
2024-01-15T18:49:22.254Z,1.70
2024-01-15T18:51:54.209Z,1.60
2024-01-15T18:54:22.050Z,1.60
2024-01-15T18:56:49.275Z,1.60
2024-01-15T18:59:16.892Z,1.40
2024-01-15T19:01:44.983Z,1.40
2024-01-15T19:04:13.233Z,1.40
2024-01-15T19:06:43.565Z,1.40
2024-01-15T19:09:11.524Z,1.40
2024-01-15T19:11:38.951Z,1.30
2024-01-15T19:14:07.240Z,1.20
2024-01-15T19:16:34.478Z,1.30
2024-01-15T19:19:01.767Z,1.40
2024-01-15T19:21:28.935Z,1.60
2024-01-15T19:23:56.383Z,1.60
2024-01-15T19:26:23.673Z,1.60
2024-01-15T19:28:51.001Z,1.70
2024-01-15T19:31:20.248Z,1.60
2024-01-15T19:33:47.705Z,1.50
2024-01-15T19:36:25.143Z,1.50
2024-01-15T19:38:52.486Z,1.40
2024-01-15T19:41:19.705Z,1.40
2024-01-15T19:43:47.967Z,1.30
2024-01-15T19:46:15.810Z,1.30
2024-01-15T19:48:43.089Z,1.40
2024-01-15T19:51:11.914Z,1.40
2024-01-15T19:53:40.026Z,1.40
2024-01-15T19:56:08.637Z,1.40
2024-01-15T19:58:38.339Z,1.40
2024-01-15T20:01:05.611Z,1.40
2024-01-15T20:03:32.620Z,1.50
2024-01-15T20:05:59.816Z,1.50
2024-01-15T20:08:27.028Z,1.50
2024-01-15T20:10:54.256Z,1.60
2024-01-15T20:13:21.557Z,1.60
2024-01-15T20:15:48.532Z,1.50
2024-01-15T20:18:15.788Z,1.50
2024-01-15T20:20:43.749Z,1.40
2024-01-15T20:23:11.157Z,1.30
2024-01-15T20:25:38.638Z,1.40
2024-01-15T20:28:07.757Z,1.40
2024-01-15T20:30:34.723Z,1.50
2024-01-15T20:33:01.982Z,1.60
2024-01-15T20:35:30.078Z,1.70
2024-01-15T20:37:58.440Z,1.90
2024-01-15T20:40:25.664Z,2.00
2024-01-15T20:42:52.700Z,2.10
2024-01-15T20:45:19.912Z,2.10
2024-01-15T20:47:46.799Z,2.20
2024-01-15T20:50:13.910Z,2.20
2024-01-15T20:52:41.023Z,2.00
2024-01-15T20:55:09.704Z,2.00
2024-01-15T20:57:37.105Z,1.80
2024-01-15T21:00:05.529Z,1.70
2024-01-15T21:02:32.790Z,1.90
2024-01-15T21:05:00.057Z,2.00
2024-01-15T21:07:28.995Z,2.10
2024-01-15T21:09:56.166Z,2.00
2024-01-15T21:12:23.700Z,2.00
2024-01-15T21:14:53.103Z,2.00
2024-01-15T21:17:20.380Z,1.80
2024-01-15T21:19:47.783Z,1.80
2024-01-15T21:22:15.041Z,1.80
2024-01-15T21:24:41.915Z,1.80
2024-01-15T21:27:09.172Z,1.80
2024-01-15T21:29:37.170Z,1.80
2024-01-15T21:32:05.475Z,1.90
2024-01-15T21:34:32.630Z,1.90
2024-01-15T21:37:00.589Z,2.00
2024-01-15T21:39:28.604Z,2.00
2024-01-15T21:41:57.155Z,2.10
2024-01-15T21:44:24.050Z,2.00
2024-01-15T21:46:51.011Z,1.90
2024-01-15T21:49:18.299Z,1.70
2024-01-15T21:51:45.489Z,1.60
2024-01-15T21:54:12.589Z,1.60
2024-01-15T21:56:39.759Z,1.50
2024-01-15T21:59:06.813Z,1.50
2024-01-15T22:01:34.009Z,1.50
2024-01-15T22:04:01.143Z,1.60
2024-01-15T22:06:28.749Z,1.90
2024-01-15T22:08:57.002Z,2.00
2024-01-15T22:11:24.203Z,2.00
2024-01-15T22:13:51.131Z,2.20
2024-01-15T22:16:18.167Z,2.30
2024-01-15T22:18:45.984Z,2.40
2024-01-15T22:21:13.206Z,2.30
2024-01-15T22:23:41.129Z,2.30
2024-01-15T22:26:08.151Z,2.00
2024-01-15T22:28:35.050Z,1.80
2024-01-15T22:31:01.912Z,1.70
2024-01-15T22:33:28.902Z,1.80
2024-01-15T22:35:56.270Z,1.70
2024-01-15T22:38:23.316Z,1.60
2024-01-15T22:40:50.721Z,1.50
2024-01-15T22:43:18.086Z,1.50
2024-01-15T22:45:45.501Z,1.50
2024-01-15T22:48:12.979Z,1.50
2024-01-15T22:50:40.802Z,1.40
2024-01-15T22:53:08.128Z,1.30
2024-01-15T22:55:35.070Z,1.40
2024-01-15T22:58:02.108Z,1.30
2024-01-15T23:00:29.760Z,1.20
2024-01-15T23:02:58.671Z,1.20
2024-01-15T23:05:25.926Z,1.20
2024-01-15T23:07:53.464Z,1.20
2024-01-15T23:10:21.051Z,1.30
2024-01-15T23:12:48.906Z,1.20
2024-01-15T23:15:16.986Z,1.00
2024-01-15T23:17:45.305Z,0.80
2024-01-15T23:20:12.921Z,0.80
2024-01-15T23:22:41.025Z,0.80
2024-01-15T23:25:09.197Z,0.80
2024-01-15T23:27:36.844Z,0.70
2024-01-15T23:30:07.070Z,0.50
2024-01-15T23:32:34.097Z,0.50
2024-01-15T23:35:02.361Z,0.40
2024-01-15T23:37:30.160Z,0.30
2024-01-15T23:39:57.207Z,0.30
2024-01-15T23:42:24.688Z,0.20
2024-01-15T23:44:51.721Z,0.30
2024-01-15T23:47:18.926Z,0.30
2024-01-15T23:49:46.191Z,0.20
2024-01-15T23:52:13.150Z,0.20
2024-01-15T23:54:40.610Z,0.20
2024-01-15T23:57:07.672Z,0.30
2024-01-15T23:59:36.857Z,0.30
